Time;durP1;ratioP1;P1;durP2;ratioP2;P2;SDS_P1;SDS_P2;PMS_P1;PMS_P2;Temp;Humidity;BMP_temperature;BMP_pressure;BME280_temperature;BME280_humidity;BME280_pressure;Samples;Min_cycle;Max_cycle;Signal;HPM_P1;HPM_P2
2023/10/16 00:02:22;;;;;;;326.40;163.90;;;;;;;21.21;45.23;102253.47;4920955;28;20138;-80
2023/10/16 00:04:49;;;;;;;369.85;180.40;;;;;;;21.06;45.22;102239.97;4964609;28;20043;-80
2023/10/16 00:07:20;;;;;;;376.52;183.35;;;;;;;21.07;45.45;102246.91;4919028;28;21856;-82
2023/10/16 00:09:45;;;;;;;397.15;190.90;;;;;;;21.17;45.53;102266.19;4969671;28;20057;-82
2023/10/16 00:12:11;;;;;;;350.30;172.88;;;;;;;21.20;45.52;102267.72;4918070;28;20054;-82
2023/10/16 00:14:36;;;;;;;346.05;171.05;;;;;;;21.05;45.33;102241.78;4975800;28;20050;-82
2023/10/16 00:17:07;;;;;;;273.13;145.10;;;;;;;21.14;45.22;102250.59;4959143;28;20053;-81
2023/10/16 00:19:34;;;;;;;288.13;149.77;;;;;;;21.14;45.46;102261.19;4971948;28;21004;-82
2023/10/16 00:22:00;;;;;;;345.98;170.88;;;;;;;21.17;45.41;102266.19;4919908;28;20535;-82
2023/10/16 00:24:26;;;;;;;335.27;167.63;;;;;;;21.16;45.45;102266.34;4973720;28;20478;-82
2023/10/16 00:26:51;;;;;;;346.85;171.77;;;;;;;21.15;45.32;102259.38;4921583;28;20473;-81
2023/10/16 00:29:24;;;;;;;329.83;165.85;;;;;;;21.04;45.37;102239.28;4943210;28;20050;-80
2023/10/16 00:31:51;;;;;;;338.73;168.23;;;;;;;21.02;45.23;102244.72;4929352;28;20058;-81
2023/10/16 00:34:20;;;;;;;357.90;176.38;;;;;;;21.05;45.40;102254.19;4985239;28;20046;-80
2023/10/16 00:36:47;;;;;;;339.23;169.23;;;;;;;21.15;45.45;102264.69;4901440;28;20081;-80
2023/10/16 00:39:13;;;;;;;396.38;190.68;;;;;;;21.01;45.28;102232.47;4971147;28;20067;-81
2023/10/16 00:41:40;;;;;;;392.00;189.07;;;;;;;21.13;45.48;102257.72;4953089;28;20568;-80
2023/10/16 00:44:06;;;;;;;397.58;190.35;;;;;;;21.14;45.26;102253.25;4967383;28;20058;-81
2023/10/16 00:46:45;;;;;;;399.45;191.43;;;;;;;21.12;45.24;102258.69;4934372;28;20050;-80
2023/10/16 00:49:15;;;;;;;342.25;169.73;;;;;;;21.14;45.19;102258.53;4981913;28;20516;-81
2023/10/16 00:51:41;;;;;;;;;;;;;;;21.12;45.21;102245.47;4918009;28;20068;-81
2023/10/16 00:54:19;;;;;;;354.58;174.75;;;;;;;21.11;45.55;102242.97;4998481;28;19948;-80
2023/10/16 00:56:45;;;;;;;335.90;167.50;;;;;;;21.10;45.30;102242.13;4935645;28;20057;-81
2023/10/16 00:59:17;;;;;;;373.30;181.60;;;;;;;21.11;45.33;102235.03;4968891;28;20050;-81
2023/10/16 01:01:46;;;;;;;367.40;178.55;;;;;;;21.09;45.22;102227.22;4949162;28;20564;-81
2023/10/16 01:04:19;;;;;;;364.85;178.20;;;;;;;21.09;45.29;102229.06;4921363;28;20073;-81
2023/10/16 01:06:45;;;;;;;405.85;193.30;;;;;;;21.06;45.18;102224.91;4984469;28;20055;-80
2023/10/16 01:09:22;;;;;;;323.00;163.88;;;;;;;21.08;45.59;102220.28;4929566;28;20408;-80
2023/10/16 01:11:49;;;;;;;328.65;164.82;;;;;;;21.10;45.46;102231.53;4976313;28;20042;-80
2023/10/16 01:14:14;;;;;;;326.58;164.40;;;;;;;21.09;45.54;102234.34;4915118;28;20473;-80
2023/10/16 01:16:40;;;;;;;380.52;183.90;;;;;;;21.11;45.28;102237.66;4977232;28;20047;-80
2023/10/16 01:19:09;;;;;;;342.33;169.82;;;;;;;21.07;45.24;102231.84;4934147;28;20636;-80
2023/10/16 01:21:34;;;;;;;294.77;153.48;;;;;;;21.01;45.33;102203.34;4967437;28;20515;-81
2023/10/16 01:24:03;;;;;;;327.58;164.35;;;;;;;21.13;45.26;102225.09;4964268;28;20058;-81
2023/10/16 01:26:31;;;;;;;189.02;116.57;;;;;;;21.03;45.18;102209.31;4944831;28;20069;-80
2023/10/16 01:28:57;;;;;;;203.50;121.65;;;;;;;21.00;45.40;102209.59;4940889;28;20054;-80
2023/10/16 01:31:23;;;;;;;207.57;122.88;;;;;;;21.07;45.44;102215.97;4981118;28;20100;-80
2023/10/16 01:33:51;;;;;;;199.48;119.15;;;;;;;21.08;45.35;102230.88;4889527;28;20059;-80
2023/10/16 01:36:16;;;;;;;184.60;114.85;;;;;;;21.04;45.37;102205.69;4982879;28;20053;-80
2023/10/16 01:38:42;;;;;;;210.63;124.32;;;;;;;21.07;45.51;102215.97;4923106;28;20540;-80
2023/10/16 01:41:15;;;;;;;231.77;130.35;;;;;;;21.06;45.47;102216.13;4986658;28;20073;-80
2023/10/16 01:43:43;;;;;;;229.85;129.82;;;;;;;21.06;45.44;102224.06;4931526;28;20505;-80
2023/10/16 01:46:11;;;;;;;225.13;128.18;;;;;;;21.06;45.32;102232.84;4976965;28;20046;-80
2023/10/16 01:48:46;;;;;;;215.60;124.75;;;;;;;21.01;45.36;102229.84;4960495;28;20057;-80
2023/10/16 01:51:19;;;;;;;241.98;133.52;;;;;;;21.05;45.39;102231.19;4966149;28;20035;-81
2023/10/16 01:53:47;;;;;;;288.45;150.52;;;;;;;21.03;45.42;102227.03;4935538;28;20461;-81
2023/10/16 01:56:14;;;;;;;242.90;134.23;;;;;;;21.03;45.60;102221.72;4982199;28;20055;-81
2023/10/16 01:58:52;;;;;;;248.35;136.10;;;;;;;21.06;45.07;102216.13;4920083;28;20046;-80
2023/10/16 02:01:20;;;;;;;231.07;129.55;;;;;;;21.03;45.46;102227.84;4962789;28;20625;-80
2023/10/16 02:03:49;;;;;;;224.40;127.88;;;;;;;21.04;45.37;102226.03;4918895;28;20050;-80
2023/10/16 02:06:18;;;;;;;294.20;152.70;;;;;;;20.94;45.40;102210.22;4980317;28;20058;-80
2023/10/16 02:08:46;;;;;;;285.30;149.13;;;;;;;21.00;45.55;102216.72;4983783;28;20066;-80
2023/10/16 02:11:13;;;;;;;243.00;134.35;;;;;;;20.94;45.26;102201.44;4968733;28;20046;-80
2023/10/16 02:13:40;;;;;;;242.65;134.18;;;;;;;21.03;45.35;102213.78;4917939;28;20269;-81
2023/10/16 02:16:10;;;;;;;220.55;126.38;;;;;;;20.96;45.37;102208.25;4956595;28;20065;-81
2023/10/16 02:18:40;;;;;;;221.38;126.65;;;;;;;20.88;45.42;102194.97;4937034;28;20053;-81
2023/10/16 02:21:12;;;;;;;216.43;125.38;;;;;;;20.99;45.51;102221.19;4974518;28;20049;-81
2023/10/16 02:23:39;;;;;;;235.30;131.48;;;;;;;21.00;45.44;102227.31;4924645;28;20050;-81
2023/10/16 02:26:08;;;;;;;264.33;141.85;;;;;;;20.99;45.40;102220.34;4972045;28;20046;-81
2023/10/16 02:28:33;;;;;;;241.85;137.30;;;;;;;20.91;45.49;102202.59;4907271;28;20059;-81
2023/10/16 02:31:10;;;;;;;272.83;144.23;;;;;;;20.99;45.33;102221.19;4972923;28;20651;-81
2023/10/16 02:33:37;;;;;;;254.82;143.68;;;;;;;20.99;45.57;102220.34;4941140;28;20142;-82
2023/10/16 02:36:03;;;;;;;213.05;125.10;;;;;;;20.96;45.20;102218.84;4962129;28;20058;-81
2023/10/16 02:38:29;;;;;;;253.85;139.18;;;;;;;20.88;45.43;102207.38;4953875;28;20257;-82
2023/10/16 02:41:01;;;;;;;249.43;137.13;;;;;;;20.96;45.50;102210.91;4933015;28;20187;-82
2023/10/16 02:43:27;;;;;;;265.20;143.13;;;;;;;20.99;45.23;102204.47;4964087;28;20449;-81
2023/10/16 02:45:53;;;;;;;269.30;144.48;;;;;;;20.93;44.95;102195.31;4941653;28;20050;-81
2023/10/16 02:48:20;;;;;;;272.20;145.60;;;;;;;20.82;45.55;102179.66;4961030;28;20042;-81
2023/10/16 02:50:53;;;;;;;275.13;146.13;;;;;;;20.96;45.47;102197.66;4980373;28;20042;-81
2023/10/16 02:53:23;;;;;;;334.13;166.10;;;;;;;20.87;45.49;102179.22;4902947;28;20513;-82
2023/10/16 02:55:58;;;;;;;363.08;176.85;;;;;;;20.97;45.32;102193.19;4977115;28;20042;-81
2023/10/16 02:58:31;;;;;;;370.25;180.15;;;;;;;20.85;45.33;102175.91;4934957;28;20803;-81
2023/10/16 03:00:58;;;;;;;386.05;185.55;;;;;;;20.95;45.37;102196.00;4980876;28;20054;-81
2023/10/16 03:03:27;;;;;;;394.77;186.73;;;;;;;20.86;45.50;102182.88;4915429;28;20061;-82
2023/10/16 03:05:55;;;;;;;447.50;208.23;;;;;;;20.86;45.29;102186.34;4941301;28;20061;-81
2023/10/16 03:08:29;;;;;;;543.05;249.65;;;;;;;20.86;45.44;102185.53;4962579;28;20116;-81
2023/10/16 03:10:59;;;;;;;780.90;349.17;;;;;;;20.92;45.34;102208.72;4927063;28;20702;-79
2023/10/16 03:13:25;;;;;;;625.10;288.08;;;;;;;20.76;45.60;102177.66;4979329;28;20050;-80
2023/10/16 03:15:59;;;;;;;722.38;328.27;;;;;;;20.93;45.41;102208.56;4930173;28;20038;-79
2023/10/16 03:18:25;;;;;;;680.97;315.58;;;;;;;20.92;45.27;102216.66;4960602;28;20461;-79
2023/10/16 03:23:54;;;;;;;688.67;322.10;;;;;;;20.80;45.48;102211.59;4972132;28;20053;-80
2023/10/16 03:28:53;;;;;;;655.67;307.58;;;;;;;20.86;45.57;102227.88;4972455;28;20550;-80
2023/10/16 03:31:20;;;;;;;605.95;284.92;;;;;;;20.91;45.55;102241.47;4981091;28;20125;-79
2023/10/16 03:33:50;;;;;;;592.53;279.10;;;;;;;20.92;45.23;102246.63;4935590;28;20448;-79
2023/10/16 03:36:16;;;;;;;583.70;274.02;;;;;;;20.91;45.33;102230.88;4963893;28;20677;-80
2023/10/16 03:38:42;;;;;;;602.25;283.17;;;;;;;20.80;45.32;102216.88;4920214;28;20117;-80
2023/10/16 03:41:13;;;;;;;609.78;285.92;;;;;;;20.87;45.42;102221.59;4981917;28;20197;-80
2023/10/16 03:43:42;;;;;;;615.05;287.98;;;;;;;20.89;45.41;102220.44;4928858;28;20076;-80
2023/10/16 03:46:11;;;;;;;633.97;295.70;;;;;;;20.86;45.29;102214.63;4963177;28;20043;-80
2023/10/16 03:48:38;;;;;;;616.05;288.27;;;;;;;20.84;45.38;102214.78;4981287;28;20038;-79
2023/10/16 03:51:07;;;;;;;662.47;314.38;;;;;;;20.90;45.55;102226.59;4925377;28;21076;-79
2023/10/16 03:53:37;;;;;;;685.67;316.90;;;;;;;20.85;45.47;102229.69;4975951;28;20152;-79
2023/10/16 03:56:04;;;;;;;676.53;312.95;;;;;;;20.89;45.51;102228.41;4928597;28;20975;-80
2023/10/16 03:58:34;;;;;;;645.72;299.63;;;;;;;20.88;45.46;102223.25;4970885;28;20054;-80
2023/10/16 04:01:07;;;;;;;730.72;335.38;;;;;;;20.88;45.51;102224.09;4908621;28;20051;-80
2023/10/16 04:03:50;;;;;;;706.78;329.60;;;;;;;20.89;45.42;102223.09;4952215;28;22200;-80
2023/10/16 04:06:19;;;;;;;730.13;333.80;;;;;;;20.90;45.43;102219.47;4951498;28;20078;-79
2023/10/16 04:08:47;;;;;;;818.22;378.33;;;;;;;20.89;45.19;102216.97;4905749;28;20383;-79
2023/10/16 04:11:14;;;;;;;740.35;340.85;;;;;;;20.89;45.42;102211.69;4953837;28;20050;-80
2023/10/16 04:13:49;;;;;;;760.42;358.63;;;;;;;20.89;45.50;102204.56;4909477;28;20149;-79
2023/10/16 04:24:30;;;;;;;693.72;317.33;;;;;;;20.91;45.40;102210.53;4950020;28;20054;-80
2023/10/16 04:29:33;;;;;;;665.50;306.90;;;;;;;20.81;45.24;102194.72;4981985;28;20596;-80
2023/10/16 04:32:19;;;;;;;675.83;311.17;;;;;;;20.78;45.50;102184.44;4927069;28;20138;-80
2023/10/16 04:34:52;;;;;;;615.20;284.02;;;;;;;20.89;45.26;102193.97;4981799;28;20054;-80
2023/10/16 04:50:30;;;;;;;630.20;290.83;;;;;;;20.88;45.44;102191.47;4975112;28;20050;-79
2023/10/16 05:03:25;;;;;;;617.83;284.42;;;;;;;20.88;45.34;102202.06;4934254;28;20066;-80
2023/10/16 05:06:05;;;;;;;617.13;285.13;;;;;;;20.87;45.56;102201.25;4987611;28;20061;-80
2023/10/16 05:08:59;;;;;;;613.08;282.85;;;;;;;20.90;45.20;102192.16;4929816;28;20397;-80
2023/10/16 06:14:34;;;;;;;683.85;318.30;;;;;;;20.81;45.63;102207.13;4933740;28;20050;-79
2023/10/16 06:17:00;;;;;;;721.67;334.77;;;;;;;20.79;45.74;102206.47;4979705;28;20395;-79
2023/10/16 06:19:26;;;;;;;719.45;334.27;;;;;;;20.77;45.80;102205.78;4928055;28;20057;-80
2023/10/16 06:21:57;;;;;;;665.58;311.98;;;;;;;20.71;45.74;102187.88;4978947;28;20050;-80
2023/10/16 06:24:25;;;;;;;646.35;303.60;;;;;;;20.60;45.59;102175.69;4931777;28;20054;-80
2023/10/16 06:27:01;;;;;;;735.63;341.58;;;;;;;20.80;45.69;102211.59;4994354;28;20077;-79
2023/10/16 06:29:40;;;;;;;719.25;334.08;;;;;;;20.81;45.73;102209.78;4933021;28;20057;-79
2023/10/16 06:32:07;;;;;;;769.00;351.80;;;;;;;20.84;45.51;102216.63;4968213;28;20050;-79
2023/10/16 06:34:36;;;;;;;759.85;349.40;;;;;;;20.84;45.50;102212.16;4953500;28;20382;-80
2023/10/16 06:37:06;;;;;;;716.03;328.40;;;;;;;20.77;45.51;102206.63;4976907;28;20156;-79
2023/10/16 06:39:41;;;;;;;738.33;338.05;;;;;;;20.82;45.55;102208.78;4915370;28;20053;-80
2023/10/16 06:42:11;;;;;;;713.20;325.92;;;;;;;20.87;45.69;102219.78;4983112;28;20452;-80
2023/10/16 06:44:36;;;;;;;;;;;;;;;20.89;45.56;102222.28;4935917;28;20069;-81
2023/10/16 06:47:02;;;;;;;707.30;323.65;;;;;;;20.90;45.66;102221.28;4972651;28;19938;-81
2023/10/16 06:49:38;;;;;;;714.78;326.55;;;;;;;20.89;45.57;102225.75;4923590;28;20050;-79
2023/10/16 06:52:05;;;;;;;684.50;315.48;;;;;;;20.83;45.54;102214.94;4967251;28;20065;-79
2023/10/16 06:54:37;;;;;;;666.88;310.23;;;;;;;20.89;45.36;102222.28;4981268;28;20046;-79
2023/10/16 06:57:12;;;;;;;697.63;324.13;;;;;;;20.91;45.40;102225.59;4931212;28;20082;-79
2023/10/16 06:59:41;;;;;;;677.15;315.55;;;;;;;20.91;45.39;102228.25;4978365;28;20050;-80
2023/10/16 07:02:15;;;;;;;691.93;321.90;;;;;;;20.90;45.42;102227.41;4935663;28;20525;-79
2023/10/16 07:04:47;;;;;;;695.90;325.10;;;;;;;20.84;45.36;102229.84;4980205;28;20108;-78
2023/10/16 07:07:18;;;;;;;684.67;320.42;;;;;;;20.96;45.22;102252.44;4933776;28;20042;-79
2023/10/16 07:09:48;;;;;;;726.03;337.80;;;;;;;20.88;45.30;102237.34;4976338;28;20485;-80
2023/10/16 07:12:18;;;;;;;733.83;340.17;;;;;;;20.99;45.49;102247.66;4929808;28;20108;-79
2023/10/16 07:14:55;;;;;;;;;;;;;;;21.04;45.19;102249.88;4969745;28;20054;-79
2023/10/16 07:17:29;;;;;;;771.83;357.33;;;;;;;21.26;44.77;102243.28;4981194;28;19917;-79
2023/10/16 07:19:58;;;;;;;769.75;358.17;;;;;;;21.29;44.78;102242.97;4909809;28;20387;-78
2023/10/16 07:22:33;;;;;;;738.53;342.92;;;;;;;21.17;44.73;102218.50;4982901;28;20038;-80
2023/10/16 07:27:47;;;;;;;748.08;347.83;;;;;;;21.27;44.77;102232.53;4981588;28;20055;-78
2023/10/16 07:30:22;;;;;;;734.08;339.65;;;;;;;21.30;44.47;102240.16;4937995;28;20049;-79
2023/10/16 07:32:48;;;;;;;731.88;339.25;;;;;;;21.27;44.84;102229.03;4978571;28;20050;-80
2023/10/16 07:35:17;;;;;;;724.08;335.58;;;;;;;21.24;44.76;102238.13;4939666;28;20573;-81
2023/10/16 07:37:48;;;;;;;758.30;350.20;;;;;;;21.19;44.75;102231.63;4965130;28;20055;-80
2023/10/16 07:40:20;;;;;;;751.85;348.13;;;;;;;21.16;44.60;102226.59;4950662;28;20046;-79
2023/10/16 07:42:49;;;;;;;752.03;347.10;;;;;;;21.22;44.97;102247.19;4981452;28;20096;-79
2023/10/16 07:45:15;;;;;;;734.05;338.38;;;;;;;21.30;44.84;102249.94;4929938;28;20137;-79
2023/10/16 07:47:41;;;;;;;735.85;338.73;;;;;;;21.28;44.76;102247.44;4966453;28;20049;-78
2023/10/16 07:50:07;;;;;;;709.45;329.02;;;;;;;21.30;44.44;102244.63;4937679;28;20042;-78
2023/10/16 07:52:34;;;;;;;727.03;335.50;;;;;;;21.32;44.96;102250.59;4981174;28;20627;-79
2023/10/16 07:55:02;;;;;;;714.35;330.63;;;;;;;21.29;44.55;102256.22;4940085;28;20137;-79
2023/10/16 07:57:28;;;;;;;688.50;319.27;;;;;;;21.29;44.84;102261.50;4966152;28;20166;-79
2023/10/16 07:59:54;;;;;;;689.03;318.85;;;;;;;21.30;44.46;102268.47;4936015;28;20759;-78
2023/10/16 08:02:20;;;;;;;633.08;296.40;;;;;;;21.28;44.40;102265.16;4977031;28;20067;-79
2023/10/16 08:04:51;;;;;;;643.47;299.83;;;;;;;21.30;44.41;102271.13;4975383;28;20054;-79
2023/10/16 08:07:34;;;;;;;637.95;298.23;;;;;;;21.20;44.59;102250.00;4988760;28;20329;-79
2023/10/16 08:10:28;;;;;;;669.20;311.02;;;;;;;21.29;44.55;102274.75;4939508;28;20046;-79
2023/10/16 08:12:47;;;;;;;706.28;327.55;;;;;;;21.28;44.42;102281.88;4987609;28;20257;-79
2023/10/16 08:15:15;;;;;;;726.55;335.75;;;;;;;21.29;44.39;102283.53;4938441;28;20042;-79
2023/10/16 08:17:44;;;;;;;740.28;342.35;;;;;;;21.29;44.53;102288.84;4953750;28;20846;-79
2023/10/16 08:20:17;;;;;;;742.67;341.60;;;;;;;21.30;44.48;102287.03;4919414;28;20516;-80
2023/10/16 08:22:47;;;;;;;724.97;334.60;;;;;;;21.24;44.51;102280.53;4984648;28;20093;-79
2023/10/16 08:25:30;;;;;;;707.97;325.73;;;;;;;21.18;44.19;102272.31;4942803;28;20084;-81
2023/10/16 08:28:18;;;;;;;724.40;332.98;;;;;;;21.27;44.49;102277.56;4977638;28;20065;-80
2023/10/16 08:30:49;;;;;;;755.03;346.83;;;;;;;21.26;44.40;102278.56;4974654;28;20058;-80
2023/10/16 08:33:18;;;;;;;750.45;345.45;;;;;;;21.27;44.50;102277.56;4989810;28;20054;-80
2023/10/16 08:35:45;;;;;;;741.67;341.17;;;;;;;21.14;44.42;102250.59;4943685;28;20679;-80
2023/10/16 08:38:25;;;;;;;711.25;328.23;;;;;;;21.26;44.47;102272.41;4981720;28;20070;-80
2023/10/16 08:41:00;;;;;;;715.83;330.10;;;;;;;21.26;44.46;102275.91;4934160;28;20396;-81
2023/10/16 08:43:39;;;;;;;720.90;331.75;;;;;;;21.26;44.21;102272.41;4987295;28;20497;-81
2023/10/16 08:46:18;;;;;;;;;;;;;;;21.27;44.49;102279.38;4976012;28;20046;-80
2023/10/16 08:48:52;;;;;;;712.70;324.85;;;;;;;21.26;44.24;102277.72;4969608;28;19968;-81
2023/10/16 08:51:19;;;;;;;741.58;336.10;;;;;;;21.24;44.30;102275.22;4989454;28;20046;-80
2023/10/16 08:53:45;;;;;;;729.92;337.05;;;;;;;21.26;44.18;102272.41;4946304;28;20038;-81
2023/10/16 08:56:12;;;;;;;719.17;333.52;;;;;;;21.23;44.43;102264.75;4991514;28;20042;-81
2023/10/16 08:58:45;;;;;;;729.65;338.30;;;;;;;21.24;44.28;102267.28;4944779;28;20489;-80
2023/10/16 09:01:14;;;;;;;712.72;330.30;;;;;;;21.23;44.28;102270.06;4989670;28;20046;-80
2023/10/16 09:03:44;;;;;;;718.58;332.90;;;;;;;21.23;44.49;102278.00;4936579;28;20109;-79
2023/10/16 09:06:13;;;;;;;706.38;326.67;;;;;;;21.14;44.51;102274.44;4984889;28;20400;-79
2023/10/16 09:08:41;;;;;;;701.57;323.27;;;;;;;21.19;44.16;102282.78;4921413;28;20455;-79
2023/10/16 09:11:07;;;;;;;701.92;324.50;;;;;;;21.22;44.37;102297.53;4983674;28;20125;-78
2023/10/16 09:13:36;;;;;;;710.05;327.77;;;;;;;21.25;44.54;102294.59;4939240;28;20141;-79
2023/10/16 09:16:11;;;;;;;694.63;321.30;;;;;;;21.25;44.36;102297.25;4985537;28;20808;-79
2023/10/16 09:18:39;;;;;;;697.00;322.35;;;;;;;21.19;44.21;102287.25;4939090;28;20097;-79
2023/10/16 09:21:22;;;;;;;667.45;309.50;;;;;;;21.26;44.43;102301.56;4984754;28;20070;-79
2023/10/16 09:23:51;;;;;;;613.97;287.67;;;;;;;21.26;44.33;102301.56;4937960;28;20065;-78
2023/10/16 09:26:32;;;;;;;606.03;284.27;;;;;;;21.24;44.48;102299.06;4982924;28;20819;-78
2023/10/16 09:29:04;;;;;;;682.90;316.60;;;;;;;21.17;44.35;102289.19;4938148;28;20068;-78
2023/10/16 09:31:31;;;;;;;670.55;315.00;;;;;;;21.27;44.38;102311.19;4968990;28;20113;-79
2023/10/16 09:33:57;;;;;;;721.55;332.50;;;;;;;21.14;44.47;102298.28;4989705;28;20219;-78
2023/10/16 09:36:22;;;;;;;710.53;327.95;;;;;;;21.24;44.44;102306.16;4977491;28;20074;-79
2023/10/16 09:38:54;;;;;;;713.90;329.23;;;;;;;21.27;44.16;102319.97;4935741;28;20109;-79
2023/10/16 09:46:52;;;;;;;738.28;347.55;;;;;;;21.12;44.42;102295.78;4939201;28;20058;-78
2023/10/16 09:49:23;;;;;;;725.10;334.58;;;;;;;21.25;44.29;102307.84;4970113;28;20456;-79
2023/10/16 09:51:57;;;;;;;720.47;337.70;;;;;;;21.25;44.24;102306.03;4942899;28;20683;-79
2023/10/16 09:54:25;;;;;;;691.75;320.33;;;;;;;21.16;44.39;102292.81;4980973;28;20054;-79
2023/10/16 09:56:58;;;;;;;691.00;319.80;;;;;;;21.22;44.42;102301.00;4971338;28;20050;-79
2023/10/16 09:59:26;;;;;;;704.05;325.20;;;;;;;21.23;44.46;102304.50;4965177;28;20055;-80
2023/10/16 10:01:55;;;;;;;695.65;320.77;;;;;;;21.17;44.34;102292.66;4933038;28;20035;-81
2023/10/16 10:04:24;;;;;;;696.60;320.58;;;;;;;21.28;44.57;102297.78;4982663;28;20092;-79
2023/10/16 10:06:57;;;;;;;671.08;310.88;;;;;;;21.28;44.55;102299.59;4937776;28;20125;-79
2023/10/16 10:09:41;;;;;;;668.40;310.50;;;;;;;21.16;44.47;102279.59;4976758;28;20054;-80
2023/10/16 10:12:37;;;;;;;686.47;317.45;;;;;;;21.28;44.32;102299.59;4926826;28;20592;-79
2023/10/16 10:15:26;;;;;;;683.22;316.20;;;;;;;21.28;44.68;102299.59;4977700;28;20034;-80
2023/10/16 10:17:55;;;;;;;696.00;321.73;;;;;;;21.27;44.35;102296.09;4984873;28;20193;-79
2023/10/16 10:20:39;;;;;;;714.95;328.90;;;;;;;21.21;44.41;102288.75;4931250;28;20597;-80
2023/10/16 10:23:06;;;;;;;731.28;336.60;;;;;;;21.12;44.79;102279.91;4968697;28;20108;-80
2023/10/16 10:25:40;;;;;;;761.85;349.80;;;;;;;21.29;44.52;102298.59;4932327;28;20069;-79
2023/10/16 10:28:40;;;;;;;746.03;343.73;;;;;;;21.28;44.24;102303.06;4980030;28;20042;-79
2023/10/16 10:31:07;;;;;;;748.97;345.27;;;;;;;21.26;44.36;102293.63;4922496;28;20058;-80
2023/10/16 10:33:42;;;;;;;752.05;345.35;;;;;;;21.36;44.63;102300.50;4965375;28;20042;-80
2023/10/16 10:36:27;;;;;;;728.28;336.05;;;;;;;21.42;44.37;102301.69;4976477;28;20055;-80
2023/10/16 10:42:23;;;;;;;738.25;339.15;;;;;;;21.41;44.52;102300.03;4965233;28;20104;-80
2023/10/16 10:45:45;;;;;;;763.65;348.33;;;;;;;21.37;44.43;102296.88;4931863;28;20058;-79
2023/10/16 10:47:46;;;;;;;774.75;357.48;;;;;;;21.39;44.47;102305.50;4948695;28;20046;-79
2023/10/16 10:50:15;;;;;;;773.78;349.73;;;;;;;21.39;44.20;102291.41;4953037;28;20505;-79
2023/10/16 10:52:43;;;;;;;781.47;352.95;;;;;;;21.41;44.63;102286.78;4980580;28;20050;-79
2023/10/16 10:55:18;;;;;;;792.00;357.20;;;;;;;21.37;45.01;102286.25;4936664;28;20102;-79
2023/10/16 11:03:05;;;;;;;4.68;1.65;;;;;;;21.51;45.15;102286.66;5048986;28;20033;-65
2023/10/16 11:05:32;;;;;;;0.90;0.70;;;;;;;21.50;45.00;102275.22;5014677;28;20068;-65
2023/10/16 11:10:44;;;;;;;1.33;0.60;;;;;;;21.47;45.04;102270.25;5030185;28;20132;-66
2023/10/16 11:13:11;;;;;;;1.83;0.98;;;;;;;21.56;44.99;102268.50;5038891;28;20048;-66
2023/10/16 11:15:45;;;;;;;2.25;1.05;;;;;;;21.55;45.25;102267.66;5013674;28;20151;-66
2023/10/16 11:18:12;;;;;;;4.07;0.85;;;;;;;21.66;44.85;102270.03;5043620;28;20404;-66
2023/10/16 11:20:39;;;;;;;1.65;0.68;;;;;;;21.44;45.28;102240.59;5002935;28;20211;-65
2023/10/16 11:23:14;;;;;;;4.03;1.02;;;;;;;21.53;44.79;102272.25;5039039;28;20136;-66
2023/10/16 11:25:50;;;;;;;1.02;0.93;;;;;;;21.47;44.93;102262.28;5007618;28;20041;-66
2023/10/16 11:28:21;;;;;;;2.20;0.82;;;;;;;21.47;44.84;102270.25;5027885;28;20033;-66
2023/10/16 11:30:49;;;;;;;0.70;0.70;;;;;;;21.48;44.88;102268.44;5027812;28;20038;-66
2023/10/16 11:34:00;;;;;;;2.10;1.00;;;;;;;21.46;44.84;102263.28;5008232;28;22276;-66
2023/10/16 11:36:27;;;;;;;1.75;0.50;;;;;;;21.47;44.55;102264.94;5039524;28;21018;-66
2023/10/16 11:38:58;;;;;;;1.50;0.90;;;;;;;21.44;44.84;102259.97;5001684;28;20034;-65
2023/10/16 11:41:25;;;;;;;2.42;0.93;;;;;;;21.46;44.63;102251.84;5034144;28;20172;-66
2023/10/16 11:43:52;;;;;;;1.23;0.80;;;;;;;21.46;44.52;102260.63;5005000;28;20047;-65
2023/10/16 11:46:44;;;;;;;2.28;1.00;;;;;;;21.41;44.80;102247.03;5035713;28;20041;-65
2023/10/16 11:51:49;;;;;;;0.90;0.70;;;;;;;21.45;44.47;102245.72;5034970;28;20037;-63
2023/10/16 11:54:20;;;;;;;2.38;1.00;;;;;;;21.44;44.65;102257.31;5032983;28;20033;-64
2023/10/16 11:56:53;;;;;;;1.50;0.77;;;;;;;21.41;44.60;102252.31;5035355;28;20668;-64
2023/10/16 11:59:22;;;;;;;1.02;0.77;;;;;;;21.45;44.41;102258.97;5005040;28;20055;-64
2023/10/16 12:01:51;;;;;;;3.47;0.97;;;;;;;21.42;44.54;102248.69;5044983;28;20033;-66
2023/10/16 12:04:19;;;;;;;1.48;0.90;;;;;;;21.44;44.62;102251.19;5010637;28;21050;-67
2023/10/16 12:06:46;;;;;;;1.05;0.77;;;;;;;21.36;44.36;102250.16;5040128;28;20045;-67
2023/10/16 12:09:19;;;;;;;1.90;0.70;;;;;;;21.42;44.48;102261.94;5010359;28;20112;-67
2023/10/16 12:11:46;;;;;;;1.95;0.90;;;;;;;21.45;44.61;102263.44;5021999;28;20055;-66
2023/10/16 12:14:15;;;;;;;1.17;0.75;;;;;;;21.44;44.40;102261.78;4993606;28;20063;-66
2023/10/16 12:16:44;;;;;;;0.82;0.77;;;;;;;21.40;44.53;102254.16;5017055;28;20048;-66
2023/10/16 12:19:14;;;;;;;2.53;0.85;;;;;;;21.42;44.47;102260.13;5023623;28;20041;-67
2023/10/16 12:21:41;;;;;;;2.40;0.90;;;;;;;21.44;44.62;102264.44;4983895;28;20131;-66
2023/10/16 12:24:07;;;;;;;1.17;0.88;;;;;;;21.44;44.36;102259.13;5026568;28;20068;-66
2023/10/16 12:26:34;;;;;;;3.35;0.88;;;;;;;21.43;44.59;102258.31;4992388;28;20081;-66
2023/10/16 12:29:00;;;;;;;1.55;0.90;;;;;;;21.42;44.54;102265.41;5018895;28;20051;-66
2023/10/16 12:31:26;;;;;;;1.17;0.68;;;;;;;21.43;44.37;102263.59;4983994;28;20046;-66
2023/10/16 12:33:52;;;;;;;0.98;0.70;;;;;;;21.41;44.41;102258.47;5025623;28;20120;-66
2023/10/16 12:36:18;;;;;;;1.65;0.75;;;;;;;21.43;44.39;102260.94;4993565;28;20041;-66
2023/10/16 12:38:44;;;;;;;2.13;0.90;;;;;;;21.42;44.33;102260.13;5010460;28;21091;-65
2023/10/16 12:41:10;;;;;;;1.10;0.75;;;;;;;21.39;44.43;102249.00;5018227;28;20056;-66
2023/10/16 12:43:36;;;;;;;2.20;0.82;;;;;;;21.41;44.49;102253.16;5015894;28;20170;-66
2023/10/16 12:46:03;;;;;;;0.75;0.73;;;;;;;21.42;44.55;102260.13;4997672;28;20491;-67
2023/10/16 12:48:29;;;;;;;1.17;0.95;;;;;;;21.43;44.46;102247.69;5019335;28;20091;-64
2023/10/16 12:50:59;;;;;;;1.42;0.80;;;;;;;21.39;44.68;102249.00;4988743;28;20045;-65
2023/10/16 12:53:27;;;;;;;2.20;0.80;;;;;;;21.37;44.75;102251.81;5018385;28;20510;-64
2023/10/16 12:55:55;;;;;;;1.92;1.17;;;;;;;21.36;44.63;102244.00;4994302;28;20128;-64
2023/10/16 12:58:23;;;;;;;1.25;0.68;;;;;;;21.41;44.44;102255.81;5025622;28;20030;-64
2023/10/16 13:00:52;;;;;;;2.35;0.95;;;;;;;21.42;44.46;102246.03;4986470;28;20061;-64
2023/10/16 13:03:20;;;;;;;1.20;0.75;;;;;;;21.41;44.61;102244.38;5014424;28;20044;-64
2023/10/16 13:05:52;;;;;;;1.42;0.80;;;;;;;21.40;44.55;102238.25;5021489;28;20045;-64
2023/10/16 13:08:20;;;;;;;1.85;0.77;;;;;;;21.44;44.63;102244.06;5024553;28;20114;-65
2023/10/16 13:10:48;;;;;;;1.77;0.77;;;;;;;21.42;44.33;102236.28;4986087;28;20059;-64
2023/10/16 13:13:19;;;;;;;2.83;1.00;;;;;;;21.39;44.61;102239.25;5026159;28;20664;-64
2023/10/16 13:15:51;;;;;;;2.55;0.95;;;;;;;21.41;44.55;102242.56;4987624;28;20511;-64
2023/10/16 13:18:28;;;;;;;0.68;0.68;;;;;;;21.41;44.49;102239.91;5019672;28;20041;-66
2023/10/16 13:21:06;;;;;;;1.65;1.02;;;;;;;21.44;44.51;102243.22;4989516;28;20065;-67
2023/10/16 13:23:36;;;;;;;1.60;0.80;;;;;;;21.43;44.50;102239.75;5013586;28;20037;-66